sensor_id;sensor_type;location;lat;lon;timestamp;pressure;altitude;pressure_sealevel;temperature
64458;BMP280;58438;51.200;7.252;2024-03-08T00:01:16;97865.88;;;2.31
64458;BMP280;58438;51.200;7.252;2024-03-08T00:04:06;97870.56;;;2.27
64458;BMP280;58438;51.200;7.252;2024-03-08T00:06:55;97865.09;;;2.11
64458;BMP280;58438;51.200;7.252;2024-03-08T00:09:42;97858.84;;;2.18
64458;BMP280;58438;51.200;7.252;2024-03-08T00:12:29;97860.13;;;2.10
64458;BMP280;58438;51.200;7.252;2024-03-08T00:15:17;97857.22;;;2.24
64458;BMP280;58438;51.200;7.252;2024-03-08T00:18:05;97865.84;;;2.12
64458;BMP280;58438;51.200;7.252;2024-03-08T00:20:51;97858.38;;;2.00
64458;BMP280;58438;51.200;7.252;2024-03-08T00:23:40;97852.53;;;2.05
64458;BMP280;58438;51.200;7.252;2024-03-08T00:26:28;97859.56;;;1.99
64458;BMP280;58438;51.200;7.252;2024-03-08T00:29:16;97851.78;;;2.04
64458;BMP280;58438;51.200;7.252;2024-03-08T00:32:03;97842.28;;;2.00
64458;BMP280;58438;51.200;7.252;2024-03-08T00:34:50;97836.75;;;2.10
64458;BMP280;58438;51.200;7.252;2024-03-08T00:37:39;97847.53;;;2.07
64458;BMP280;58438;51.200;7.252;2024-03-08T00:40:27;97847.03;;;2.12
64458;BMP280;58438;51.200;7.252;2024-03-08T00:43:15;97846.69;;;2.10
64458;BMP280;58438;51.200;7.252;2024-03-08T00:46:02;97846.41;;;2.04
64458;BMP280;58438;51.200;7.252;2024-03-08T00:48:50;97839.16;;;2.01
64458;BMP280;58438;51.200;7.252;2024-03-08T00:51:37;97827.97;;;2.06
64458;BMP280;58438;51.200;7.252;2024-03-08T00:54:24;97828.53;;;1.94
64458;BMP280;58438;51.200;7.252;2024-03-08T00:57:12;97822.09;;;1.92
64458;BMP280;58438;51.200;7.252;2024-03-08T01:00:00;97820.13;;;1.92
64458;BMP280;58438;51.200;7.252;2024-03-08T01:02:50;97817.75;;;1.98
64458;BMP280;58438;51.200;7.252;2024-03-08T01:05:40;97808.22;;;1.93
64458;BMP280;58438;51.200;7.252;2024-03-08T01:08:30;97813.47;;;2.00
64458;BMP280;58438;51.200;7.252;2024-03-08T01:11:19;97803.63;;;1.94
64458;BMP280;58438;51.200;7.252;2024-03-08T01:14:10;97798.38;;;1.87
64458;BMP280;58438;51.200;7.252;2024-03-08T01:16:59;97794.66;;;1.81
64458;BMP280;58438;51.200;7.252;2024-03-08T01:19:49;97793.00;;;1.87
64458;BMP280;58438;51.200;7.252;2024-03-08T01:22:40;97793.16;;;1.80
64458;BMP280;58438;51.200;7.252;2024-03-08T01:25:30;97775.94;;;1.77
64458;BMP280;58438;51.200;7.252;2024-03-08T01:28:20;97777.09;;;1.76
64458;BMP280;58438;51.200;7.252;2024-03-08T01:31:12;97766.72;;;1.78
64458;BMP280;58438;51.200;7.252;2024-03-08T01:34:02;97763.41;;;1.71
64458;BMP280;58438;51.200;7.252;2024-03-08T01:36:51;97757.09;;;1.81
64458;BMP280;58438;51.200;7.252;2024-03-08T01:39:41;97763.34;;;1.74
64458;BMP280;58438;51.200;7.252;2024-03-08T01:42:31;97765.25;;;1.74
64458;BMP280;58438;51.200;7.252;2024-03-08T01:45:20;97761.00;;;1.76
64458;BMP280;58438;51.200;7.252;2024-03-08T01:48:11;97751.78;;;1.77
64458;BMP280;58438;51.200;7.252;2024-03-08T01:51:01;97746.34;;;1.81
64458;BMP280;58438;51.200;7.252;2024-03-08T01:53:51;97745.78;;;1.70
64458;BMP280;58438;51.200;7.252;2024-03-08T01:56:41;97743.34;;;1.79
64458;BMP280;58438;51.200;7.252;2024-03-08T01:59:31;97744.28;;;1.69
64458;BMP280;58438;51.200;7.252;2024-03-08T02:02:21;97738.53;;;1.67
64458;BMP280;58438;51.200;7.252;2024-03-08T02:05:12;97745.06;;;1.66
64458;BMP280;58438;51.200;7.252;2024-03-08T02:08:02;97727.63;;;1.77
64458;BMP280;58438;51.200;7.252;2024-03-08T02:10:53;97727.88;;;1.63
64458;BMP280;58438;51.200;7.252;2024-03-08T02:13:42;97721.41;;;1.61
64458;BMP280;58438;51.200;7.252;2024-03-08T02:16:32;97719.88;;;1.60
64458;BMP280;58438;51.200;7.252;2024-03-08T02:19:22;97718.34;;;1.59
64458;BMP280;58438;51.200;7.252;2024-03-08T02:22:13;97717.19;;;1.60
64458;BMP280;58438;51.200;7.252;2024-03-08T02:25:02;97719.00;;;1.66
64458;BMP280;58438;51.200;7.252;2024-03-08T02:27:53;97713.53;;;1.73
64458;BMP280;58438;51.200;7.252;2024-03-08T02:30:42;97714.06;;;1.65
64458;BMP280;58438;51.200;7.252;2024-03-08T02:33:34;97711.72;;;1.67
64458;BMP280;58438;51.200;7.252;2024-03-08T02:36:23;97709.19;;;1.79
64458;BMP280;58438;51.200;7.252;2024-03-08T02:39:14;97709.69;;;1.74
64458;BMP280;58438;51.200;7.252;2024-03-08T02:42:04;97709.84;;;1.64
64458;BMP280;58438;51.200;7.252;2024-03-08T02:44:54;97708.97;;;1.70
64458;BMP280;58438;51.200;7.252;2024-03-08T02:47:45;97702.84;;;1.70
64458;BMP280;58438;51.200;7.252;2024-03-08T02:50:32;97708.38;;;1.82
64458;BMP280;58438;51.200;7.252;2024-03-08T02:53:20;97701.75;;;1.87
64458;BMP280;58438;51.200;7.252;2024-03-08T02:56:09;97696.53;;;1.80
64458;BMP280;58438;51.200;7.252;2024-03-08T02:58:58;97693.56;;;1.74
64458;BMP280;58438;51.200;7.252;2024-03-08T03:01:46;97694.09;;;1.66
64458;BMP280;58438;51.200;7.252;2024-03-08T03:04:33;97688.38;;;1.64
64458;BMP280;58438;51.200;7.252;2024-03-08T03:07:20;97680.47;;;1.57
64458;BMP280;58438;51.200;7.252;2024-03-08T03:10:08;97678.19;;;1.55
64458;BMP280;58438;51.200;7.252;2024-03-08T03:12:56;97673.25;;;1.54
64458;BMP280;58438;51.200;7.252;2024-03-08T03:15:44;97664.81;;;1.52
64458;BMP280;58438;51.200;7.252;2024-03-08T03:18:32;97668.34;;;1.49
64458;BMP280;58438;51.200;7.252;2024-03-08T03:21:19;97663.19;;;1.58
64458;BMP280;58438;51.200;7.252;2024-03-08T03:24:07;97661.56;;;1.64
64458;BMP280;58438;51.200;7.252;2024-03-08T03:26:56;97662.97;;;1.49
64458;BMP280;58438;51.200;7.252;2024-03-08T03:29:45;97660.16;;;1.56
64458;BMP280;58438;51.200;7.252;2024-03-08T03:32:32;97656.25;;;1.60
64458;BMP280;58438;51.200;7.252;2024-03-08T03:35:22;97657.75;;;1.61
64458;BMP280;58438;51.200;7.252;2024-03-08T03:38:10;97656.31;;;1.57
64458;BMP280;58438;51.200;7.252;2024-03-08T03:40:57;97651.41;;;1.52
64458;BMP280;58438;51.200;7.252;2024-03-08T03:43:50;97650.38;;;1.46
64458;BMP280;58438;51.200;7.252;2024-03-08T03:46:38;97652.41;;;1.61
64458;BMP280;58438;51.200;7.252;2024-03-08T03:49:29;97646.41;;;1.54
64458;BMP280;58438;51.200;7.252;2024-03-08T03:52:16;97650.91;;;1.60
64458;BMP280;58438;51.200;7.252;2024-03-08T03:55:04;97653.19;;;1.62
64458;BMP280;58438;51.200;7.252;2024-03-08T03:57:51;97648.03;;;1.48
64458;BMP280;58438;51.200;7.252;2024-03-08T04:00:39;97640.47;;;1.43
64458;BMP280;58438;51.200;7.252;2024-03-08T04:03:28;97646.94;;;1.45
64458;BMP280;58438;51.200;7.252;2024-03-08T04:06:15;97647.94;;;1.55
64458;BMP280;58438;51.200;7.252;2024-03-08T04:09:02;97646.41;;;1.54
64458;BMP280;58438;51.200;7.252;2024-03-08T04:11:50;97643.91;;;1.43
64458;BMP280;58438;51.200;7.252;2024-03-08T04:14:40;97637.78;;;1.43
64458;BMP280;58438;51.200;7.252;2024-03-08T04:17:28;97639.72;;;1.42
64458;BMP280;58438;51.200;7.252;2024-03-08T04:20:16;97638.13;;;1.45
64458;BMP280;58438;51.200;7.252;2024-03-08T04:23:03;97631.63;;;1.46
64458;BMP280;58438;51.200;7.252;2024-03-08T04:25:51;97630.69;;;1.33
64458;BMP280;58438;51.200;7.252;2024-03-08T04:28:38;97630.56;;;1.40
64458;BMP280;58438;51.200;7.252;2024-03-08T04:31:25;97627.06;;;1.43
64458;BMP280;58438;51.200;7.252;2024-03-08T04:34:13;97629.91;;;1.32
64458;BMP280;58438;51.200;7.252;2024-03-08T04:37:01;97625.94;;;1.40
64458;BMP280;58438;51.200;7.252;2024-03-08T04:39:50;97620.63;;;1.37
64458;BMP280;58438;51.200;7.252;2024-03-08T04:42:38;97616.09;;;1.34
64458;BMP280;58438;51.200;7.252;2024-03-08T04:45:26;97610.09;;;1.30
64458;BMP280;58438;51.200;7.252;2024-03-08T04:48:14;97610.09;;;1.30
64458;BMP280;58438;51.200;7.252;2024-03-08T04:51:02;97609.97;;;1.33
64458;BMP280;58438;51.200;7.252;2024-03-08T04:53:51;97612.91;;;1.42
64458;BMP280;58438;51.200;7.252;2024-03-08T04:56:38;97608.34;;;1.39
64458;BMP280;58438;51.200;7.252;2024-03-08T04:59:26;97608.63;;;1.45
64458;BMP280;58438;51.200;7.252;2024-03-08T05:02:14;97602.34;;;1.32
64458;BMP280;58438;51.200;7.252;2024-03-08T05:05:01;97602.91;;;1.43
64458;BMP280;58438;51.200;7.252;2024-03-08T05:07:48;97605.31;;;1.37
64458;BMP280;58438;51.200;7.252;2024-03-08T05:10:36;97602.00;;;1.53
64458;BMP280;58438;51.200;7.252;2024-03-08T05:13:23;97597.56;;;1.43
64458;BMP280;58438;51.200;7.252;2024-03-08T05:16:10;97598.50;;;1.33
64458;BMP280;58438;51.200;7.252;2024-03-08T05:18:59;97596.25;;;1.31
64458;BMP280;58438;51.200;7.252;2024-03-08T05:21:46;97578.56;;;1.34
64458;BMP280;58438;51.200;7.252;2024-03-08T05:24:34;97580.84;;;1.35
64458;BMP280;58438;51.200;7.252;2024-03-08T05:27:22;97580.84;;;1.35
64458;BMP280;58438;51.200;7.252;2024-03-08T05:30:10;97578.16;;;1.35
64458;BMP280;58438;51.200;7.252;2024-03-08T05:33:01;97574.47;;;1.49
64458;BMP280;58438;51.200;7.252;2024-03-08T05:35:48;97582.97;;;1.44
64458;BMP280;58438;51.200;7.252;2024-03-08T05:38:35;97578.16;;;1.35
64458;BMP280;58438;51.200;7.252;2024-03-08T05:41:23;97577.38;;;1.35
64458;BMP280;58438;51.200;7.252;2024-03-08T05:44:13;97570.06;;;1.39
64458;BMP280;58438;51.200;7.252;2024-03-08T05:47:00;97573.41;;;1.43
64458;BMP280;58438;51.200;7.252;2024-03-08T05:49:47;97566.31;;;1.33
64458;BMP280;58438;51.200;7.252;2024-03-08T05:52:35;97557.19;;;1.30
64458;BMP280;58438;51.200;7.252;2024-03-08T05:55:23;97553.34;;;1.31
64458;BMP280;58438;51.200;7.252;2024-03-08T05:58:10;97555.53;;;1.36
64458;BMP280;58438;51.200;7.252;2024-03-08T06:00:59;97553.00;;;1.29
64458;BMP280;58438;51.200;7.252;2024-03-08T06:03:47;97551.09;;;1.30
64458;BMP280;58438;51.200;7.252;2024-03-08T06:06:35;97551.91;;;1.27
64458;BMP280;58438;51.200;7.252;2024-03-08T06:09:23;97547.91;;;1.35
64458;BMP280;58438;51.200;7.252;2024-03-08T06:12:11;97548.47;;;1.26
64458;BMP280;58438;51.200;7.252;2024-03-08T06:14:58;97544.81;;;1.36
64458;BMP280;58438;51.200;7.252;2024-03-08T06:17:47;97544.81;;;1.36
64458;BMP280;58438;51.200;7.252;2024-03-08T06:20:34;97540.69;;;1.32
64458;BMP280;58438;51.200;7.252;2024-03-08T06:23:21;97543.53;;;1.25
64458;BMP280;58438;51.200;7.252;2024-03-08T06:26:09;97537.69;;;1.30
64458;BMP280;58438;51.200;7.252;2024-03-08T06:28:56;97541.38;;;1.36
64458;BMP280;58438;51.200;7.252;2024-03-08T06:31:44;97528.25;;;1.41
64458;BMP280;58438;51.200;7.252;2024-03-08T06:34:33;97534.03;;;1.40
64458;BMP280;58438;51.200;7.252;2024-03-08T06:37:21;97533.81;;;1.50
64458;BMP280;58438;51.200;7.252;2024-03-08T06:40:10;97530.78;;;1.48
64458;BMP280;58438;51.200;7.252;2024-03-08T06:42:59;97530.78;;;1.48
64458;BMP280;58438;51.200;7.252;2024-03-08T06:45:47;97532.09;;;1.60
64458;BMP280;58438;51.200;7.252;2024-03-08T06:48:35;97535.53;;;1.60
64458;BMP280;58438;51.200;7.252;2024-03-08T06:51:24;97537.81;;;1.62
64458;BMP280;58438;51.200;7.252;2024-03-08T06:54:11;97538.28;;;1.57
64458;BMP280;58438;51.200;7.252;2024-03-08T06:56:58;97537.88;;;1.58
64458;BMP280;58438;51.200;7.252;2024-03-08T06:59:46;97532.53;;;1.58
64458;BMP280;58438;51.200;7.252;2024-03-08T07:02:33;97527.69;;;1.50
64458;BMP280;58438;51.200;7.252;2024-03-08T07:05:21;97533.19;;;1.62
64458;BMP280;58438;51.200;7.252;2024-03-08T07:08:13;97529.13;;;1.54
64458;BMP280;58438;51.200;7.252;2024-03-08T07:11:02;97532.09;;;1.60
64458;BMP280;58438;51.200;7.252;2024-03-08T07:13:49;97522.53;;;1.59
64458;BMP280;58438;51.200;7.252;2024-03-08T07:16:36;97520.56;;;1.63
64458;BMP280;58438;51.200;7.252;2024-03-08T07:19:25;97515.03;;;1.70
64458;BMP280;58438;51.200;7.252;2024-03-08T07:22:12;97518.06;;;1.72
64458;BMP280;58438;51.200;7.252;2024-03-08T07:25:00;97513.72;;;1.78
64458;BMP280;58438;51.200;7.252;2024-03-08T07:28:05;97504.00;;;1.84
64458;BMP280;58438;51.200;7.252;2024-03-08T07:30:57;97516.56;;;1.87
64458;BMP280;58438;51.200;7.252;2024-03-08T07:33:58;97508.53;;;1.87
64458;BMP280;58438;51.200;7.252;2024-03-08T07:36:45;97506.94;;;1.89
64458;BMP280;58438;51.200;7.252;2024-03-08T07:39:32;97510.66;;;1.95
64458;BMP280;58438;51.200;7.252;2024-03-08T07:42:20;97506.22;;;2.05
64458;BMP280;58438;51.200;7.252;2024-03-08T07:45:09;97511.03;;;2.13
64458;BMP280;58438;51.200;7.252;2024-03-08T07:47:56;97510.69;;;2.27
64458;BMP280;58438;51.200;7.252;2024-03-08T07:50:44;97505.91;;;2.35
64458;BMP280;58438;51.200;7.252;2024-03-08T07:53:32;97511.63;;;2.37
64458;BMP280;58438;51.200;7.252;2024-03-08T07:56:19;97504.91;;;2.45
64458;BMP280;58438;51.200;7.252;2024-03-08T07:59:08;97507.69;;;2.57
64458;BMP280;58438;51.200;7.252;2024-03-08T08:01:58;97504.03;;;2.80
64458;BMP280;58438;51.200;7.252;2024-03-08T08:04:45;97510.75;;;2.88
64458;BMP280;58438;51.200;7.252;2024-03-08T08:07:33;97512.72;;;2.99
64458;BMP280;58438;51.200;7.252;2024-03-08T08:10:20;97520.53;;;3.10
64458;BMP280;58438;51.200;7.252;2024-03-08T08:13:08;97518.69;;;3.19
64458;BMP280;58438;51.200;7.252;2024-03-08T08:15:58;97518.47;;;3.42
64458;BMP280;58438;51.200;7.252;2024-03-08T08:18:45;97521.44;;;3.73
64458;BMP280;58438;51.200;7.252;2024-03-08T08:21:34;97526.50;;;3.83
64458;BMP280;58438;51.200;7.252;2024-03-08T08:24:22;97513.88;;;3.93
64458;BMP280;58438;51.200;7.252;2024-03-08T08:27:10;97514.13;;;4.23
64458;BMP280;58438;51.200;7.252;2024-03-08T08:29:58;97514.00;;;4.27
64458;BMP280;58438;51.200;7.252;2024-03-08T08:32:46;97514.19;;;4.45
64458;BMP280;58438;51.200;7.252;2024-03-08T08:35:34;97500.56;;;4.61
64458;BMP280;58438;51.200;7.252;2024-03-08T08:38:21;97499.66;;;4.76
64458;BMP280;58438;51.200;7.252;2024-03-08T08:41:09;97509.63;;;5.01
64458;BMP280;58438;51.200;7.252;2024-03-08T08:43:57;97499.56;;;5.22
64458;BMP280;58438;51.200;7.252;2024-03-08T08:46:53;97501.94;;;5.42
64458;BMP280;58438;51.200;7.252;2024-03-08T08:49:46;97500.84;;;5.18
64458;BMP280;58438;51.200;7.252;2024-03-08T08:52:33;97498.56;;;5.29
64458;BMP280;58438;51.200;7.252;2024-03-08T08:55:23;97495.09;;;5.28
64458;BMP280;58438;51.200;7.252;2024-03-08T08:58:11;97487.38;;;5.18
64458;BMP280;58438;51.200;7.252;2024-03-08T09:00:59;97503.66;;;5.27
64458;BMP280;58438;51.200;7.252;2024-03-08T09:03:47;97478.34;;;5.33
64458;BMP280;58438;51.200;7.252;2024-03-08T09:06:37;97470.94;;;5.46
64458;BMP280;58438;51.200;7.252;2024-03-08T09:09:27;97472.34;;;5.69
64458;BMP280;58438;51.200;7.252;2024-03-08T09:12:15;97479.03;;;5.95
64458;BMP280;58438;51.200;7.252;2024-03-08T09:15:04;97479.97;;;5.92
64458;BMP280;58438;51.200;7.252;2024-03-08T09:17:51;97469.28;;;5.88
64458;BMP280;58438;51.200;7.252;2024-03-08T09:20:38;97464.41;;;6.05
64458;BMP280;58438;51.200;7.252;2024-03-08T09:23:28;97463.34;;;6.11
64458;BMP280;58438;51.200;7.252;2024-03-08T09:26:16;97468.34;;;6.31
64458;BMP280;58438;51.200;7.252;2024-03-08T09:29:10;97472.25;;;6.30
64458;BMP280;58438;51.200;7.252;2024-03-08T09:31:57;97471.94;;;6.37
64458;BMP280;58438;51.200;7.252;2024-03-08T09:34:44;97475.88;;;6.54
64458;BMP280;58438;51.200;7.252;2024-03-08T09:37:31;97466.41;;;6.67
64458;BMP280;58438;51.200;7.252;2024-03-08T09:40:21;97469.28;;;6.82
64458;BMP280;58438;51.200;7.252;2024-03-08T09:43:10;97467.16;;;6.94
64458;BMP280;58438;51.200;7.252;2024-03-08T09:45:57;97456.66;;;6.96
64458;BMP280;58438;51.200;7.252;2024-03-08T09:48:45;97457.84;;;6.87
64458;BMP280;58438;51.200;7.252;2024-03-08T09:51:33;97453.75;;;7.00
64458;BMP280;58438;51.200;7.252;2024-03-08T09:54:21;97444.38;;;7.28
64458;BMP280;58438;51.200;7.252;2024-03-08T09:59:58;97438.94;;;7.28
64458;BMP280;58438;51.200;7.252;2024-03-08T10:02:45;97439.72;;;7.28
64458;BMP280;58438;51.200;7.252;2024-03-08T10:05:32;97441.69;;;7.60
64458;BMP280;58438;51.200;7.252;2024-03-08T10:08:20;97440.81;;;7.63
64458;BMP280;58438;51.200;7.252;2024-03-08T10:11:07;97429.66;;;7.61
64458;BMP280;58438;51.200;7.252;2024-03-08T10:13:54;97425.66;;;7.80
64458;BMP280;58438;51.200;7.252;2024-03-08T10:16:44;97433.63;;;7.84
64458;BMP280;58438;51.200;7.252;2024-03-08T10:19:32;97417.56;;;7.71
64458;BMP280;58438;51.200;7.252;2024-03-08T10:22:20;97422.66;;;7.78
64458;BMP280;58438;51.200;7.252;2024-03-08T10:25:08;97407.25;;;7.84
64458;BMP280;58438;51.200;7.252;2024-03-08T10:27:56;97405.75;;;7.83
